sensor_id;sensor_type;location;lat;lon;timestamp;P1;durP1;ratioP1;P2;durP2;ratioP2
52962;SDS011;38827;53.024;6.596;2023-04-16T00:00:10;56.22;;;29.38;;
52962;SDS011;38827;53.024;6.596;2023-04-16T00:02:35;51.33;;;28.23;;
52962;SDS011;38827;53.024;6.596;2023-04-16T00:05:03;65.65;;;29.85;;
52962;SDS011;38827;53.024;6.596;2023-04-16T00:07:29;60.20;;;30.23;;
52962;SDS011;38827;53.024;6.596;2023-04-16T00:09:55;59.88;;;29.02;;
52962;SDS011;38827;53.024;6.596;2023-04-16T00:12:20;59.83;;;29.13;;
52962;SDS011;38827;53.024;6.596;2023-04-16T00:14:47;57.00;;;29.30;;
52962;SDS011;38827;53.024;6.596;2023-04-16T00:17:13;62.50;;;29.60;;
52962;SDS011;38827;53.024;6.596;2023-04-16T00:19:39;53.63;;;27.40;;
52962;SDS011;38827;53.024;6.596;2023-04-16T00:22:04;61.90;;;29.00;;
52962;SDS011;38827;53.024;6.596;2023-04-16T00:24:30;65.40;;;29.02;;
52962;SDS011;38827;53.024;6.596;2023-04-16T00:26:56;56.75;;;27.85;;
52962;SDS011;38827;53.024;6.596;2023-04-16T00:29:22;62.58;;;29.23;;
52962;SDS011;38827;53.024;6.596;2023-04-16T00:31:47;58.03;;;27.98;;
52962;SDS011;38827;53.024;6.596;2023-04-16T00:34:13;59.63;;;27.58;;
52962;SDS011;38827;53.024;6.596;2023-04-16T00:36:39;68.70;;;30.55;;
52962;SDS011;38827;53.024;6.596;2023-04-16T00:39:05;62.92;;;29.67;;
52962;SDS011;38827;53.024;6.596;2023-04-16T00:41:31;63.72;;;29.83;;
52962;SDS011;38827;53.024;6.596;2023-04-16T00:43:56;73.80;;;29.45;;
52962;SDS011;38827;53.024;6.596;2023-04-16T00:46:37;78.40;;;32.42;;
52962;SDS011;38827;53.024;6.596;2023-04-16T00:49:04;74.68;;;29.92;;
52962;SDS011;38827;53.024;6.596;2023-04-16T00:51:30;74.43;;;29.85;;
52962;SDS011;38827;53.024;6.596;2023-04-16T00:53:56;82.40;;;31.88;;
52962;SDS011;38827;53.024;6.596;2023-04-16T00:56:22;72.38;;;30.73;;
52962;SDS011;38827;53.024;6.596;2023-04-16T00:58:49;68.25;;;30.95;;
52962;SDS011;38827;53.024;6.596;2023-04-16T01:01:14;74.00;;;31.67;;
52962;SDS011;38827;53.024;6.596;2023-04-16T01:03:57;77.35;;;31.38;;
52962;SDS011;38827;53.024;6.596;2023-04-16T01:06:23;70.07;;;29.80;;
52962;SDS011;38827;53.024;6.596;2023-04-16T01:08:51;78.60;;;33.10;;
52962;SDS011;38827;53.024;6.596;2023-04-16T01:11:19;67.90;;;32.45;;
52962;SDS011;38827;53.024;6.596;2023-04-16T01:13:48;68.43;;;32.63;;
52962;SDS011;38827;53.024;6.596;2023-04-16T01:16:13;70.93;;;32.80;;
52962;SDS011;38827;53.024;6.596;2023-04-16T01:18:41;71.32;;;31.10;;
52962;SDS011;38827;53.024;6.596;2023-04-16T01:21:06;72.75;;;32.20;;
52962;SDS011;38827;53.024;6.596;2023-04-16T01:23:32;70.07;;;30.27;;
52962;SDS011;38827;53.024;6.596;2023-04-16T01:25:58;77.68;;;33.70;;
52962;SDS011;38827;53.024;6.596;2023-04-16T01:28:24;72.28;;;32.95;;
52962;SDS011;38827;53.024;6.596;2023-04-16T01:30:58;76.15;;;32.05;;
52962;SDS011;38827;53.024;6.596;2023-04-16T01:36:28;70.68;;;32.13;;
52962;SDS011;38827;53.024;6.596;2023-04-16T01:38:54;69.75;;;32.33;;
52962;SDS011;38827;53.024;6.596;2023-04-16T01:41:19;69.82;;;33.10;;
52962;SDS011;38827;53.024;6.596;2023-04-16T01:43:45;74.43;;;34.55;;
52962;SDS011;38827;53.024;6.596;2023-04-16T01:46:12;70.38;;;33.85;;
52962;SDS011;38827;53.024;6.596;2023-04-16T01:48:43;60.03;;;31.27;;
52962;SDS011;38827;53.024;6.596;2023-04-16T01:51:09;64.40;;;32.17;;
52962;SDS011;38827;53.024;6.596;2023-04-16T01:53:35;69.18;;;34.05;;
52962;SDS011;38827;53.024;6.596;2023-04-16T01:56:04;61.00;;;32.60;;
52962;SDS011;38827;53.024;6.596;2023-04-16T01:58:35;70.13;;;34.17;;
52962;SDS011;38827;53.024;6.596;2023-04-16T02:01:01;65.70;;;33.83;;
52962;SDS011;38827;53.024;6.596;2023-04-16T02:03:38;61.20;;;33.80;;
52962;SDS011;38827;53.024;6.596;2023-04-16T02:06:04;58.83;;;32.00;;
52962;SDS011;38827;53.024;6.596;2023-04-16T02:08:30;58.63;;;32.22;;
52962;SDS011;38827;53.024;6.596;2023-04-16T02:10:56;60.38;;;34.90;;
52962;SDS011;38827;53.024;6.596;2023-04-16T02:13:22;66.03;;;34.33;;
52962;SDS011;38827;53.024;6.596;2023-04-16T02:15:50;65.15;;;34.55;;
52962;SDS011;38827;53.024;6.596;2023-04-16T02:18:21;71.88;;;34.95;;
52962;SDS011;38827;53.024;6.596;2023-04-16T02:20:48;64.07;;;33.60;;
52962;SDS011;38827;53.024;6.596;2023-04-16T02:23:32;70.32;;;36.35;;
52962;SDS011;38827;53.024;6.596;2023-04-16T02:25:59;70.35;;;35.08;;
52962;SDS011;38827;53.024;6.596;2023-04-16T02:28:27;71.35;;;35.22;;
52962;SDS011;38827;53.024;6.596;2023-04-16T02:30:54;75.15;;;35.38;;
52962;SDS011;38827;53.024;6.596;2023-04-16T02:33:26;82.47;;;35.50;;
52962;SDS011;38827;53.024;6.596;2023-04-16T02:35:56;72.75;;;34.70;;
52962;SDS011;38827;53.024;6.596;2023-04-16T02:38:21;81.00;;;36.47;;
52962;SDS011;38827;53.024;6.596;2023-04-16T02:40:50;81.30;;;37.28;;
52962;SDS011;38827;53.024;6.596;2023-04-16T02:43:15;76.93;;;37.00;;
52962;SDS011;38827;53.024;6.596;2023-04-16T02:45:44;83.95;;;36.90;;
52962;SDS011;38827;53.024;6.596;2023-04-16T02:48:10;77.82;;;36.78;;
52962;SDS011;38827;53.024;6.596;2023-04-16T02:50:38;78.78;;;37.03;;
52962;SDS011;38827;53.024;6.596;2023-04-16T02:53:04;87.50;;;36.22;;
52962;SDS011;38827;53.024;6.596;2023-04-16T02:55:34;91.20;;;38.03;;
52962;SDS011;38827;53.024;6.596;2023-04-16T02:58:00;84.35;;;37.28;;
52962;SDS011;38827;53.024;6.596;2023-04-16T03:00:28;78.13;;;36.25;;
52962;SDS011;38827;53.024;6.596;2023-04-16T03:02:53;78.25;;;37.10;;
52962;SDS011;38827;53.024;6.596;2023-04-16T03:05:22;75.60;;;35.22;;
52962;SDS011;38827;53.024;6.596;2023-04-16T03:07:47;85.40;;;36.42;;
52962;SDS011;38827;53.024;6.596;2023-04-16T03:10:14;81.45;;;34.75;;
52962;SDS011;38827;53.024;6.596;2023-04-16T03:12:40;92.35;;;38.47;;
52962;SDS011;38827;53.024;6.596;2023-04-16T03:15:12;100.03;;;39.25;;
52962;SDS011;38827;53.024;6.596;2023-04-16T03:17:37;88.68;;;37.40;;
52962;SDS011;38827;53.024;6.596;2023-04-16T03:20:03;90.03;;;38.58;;
52962;SDS011;38827;53.024;6.596;2023-04-16T03:22:30;85.30;;;37.05;;
52962;SDS011;38827;53.024;6.596;2023-04-16T03:24:56;100.50;;;38.97;;
52962;SDS011;38827;53.024;6.596;2023-04-16T03:27:21;92.82;;;39.33;;
52962;SDS011;38827;53.024;6.596;2023-04-16T03:29:47;90.57;;;38.05;;
52962;SDS011;38827;53.024;6.596;2023-04-16T03:32:13;79.13;;;35.67;;
52962;SDS011;38827;53.024;6.596;2023-04-16T03:34:38;74.82;;;35.85;;
52962;SDS011;38827;53.024;6.596;2023-04-16T03:37:04;87.03;;;36.95;;
52962;SDS011;38827;53.024;6.596;2023-04-16T03:39:36;83.07;;;36.67;;
52962;SDS011;38827;53.024;6.596;2023-04-16T03:42:02;74.90;;;34.50;;
52962;SDS011;38827;53.024;6.596;2023-04-16T03:44:28;81.07;;;35.33;;
52962;SDS011;38827;53.024;6.596;2023-04-16T03:46:56;73.72;;;34.85;;
52962;SDS011;38827;53.024;6.596;2023-04-16T03:49:27;80.72;;;35.63;;
52962;SDS011;38827;53.024;6.596;2023-04-16T03:51:55;76.72;;;34.80;;
52962;SDS011;38827;53.024;6.596;2023-04-16T03:54:22;69.20;;;34.78;;
52962;SDS011;38827;53.024;6.596;2023-04-16T03:56:51;84.18;;;37.60;;
52962;SDS011;38827;53.024;6.596;2023-04-16T03:59:18;68.35;;;33.75;;
52962;SDS011;38827;53.024;6.596;2023-04-16T04:01:44;69.60;;;34.40;;
52962;SDS011;38827;53.024;6.596;2023-04-16T04:04:09;77.10;;;35.63;;
52962;SDS011;38827;53.024;6.596;2023-04-16T04:06:38;68.85;;;34.10;;
52962;SDS011;38827;53.024;6.596;2023-04-16T04:09:04;70.90;;;33.53;;
52962;SDS011;38827;53.024;6.596;2023-04-16T04:11:29;72.82;;;34.35;;
52962;SDS011;38827;53.024;6.596;2023-04-16T04:13:58;69.85;;;33.40;;
52962;SDS011;38827;53.024;6.596;2023-04-16T04:16:26;74.45;;;33.78;;
52962;SDS011;38827;53.024;6.596;2023-04-16T04:18:52;67.70;;;33.45;;
52962;SDS011;38827;53.024;6.596;2023-04-16T04:21:19;67.03;;;32.60;;
52962;SDS011;38827;53.024;6.596;2023-04-16T04:23:45;61.45;;;31.75;;
52962;SDS011;38827;53.024;6.596;2023-04-16T04:26:10;60.38;;;32.05;;
52962;SDS011;38827;53.024;6.596;2023-04-16T04:28:36;66.80;;;33.17;;
52962;SDS011;38827;53.024;6.596;2023-04-16T04:31:02;62.25;;;32.35;;
52962;SDS011;38827;53.024;6.596;2023-04-16T04:33:27;60.97;;;31.27;;
52962;SDS011;38827;53.024;6.596;2023-04-16T04:35:56;61.53;;;31.40;;
52962;SDS011;38827;53.024;6.596;2023-04-16T04:38:22;63.55;;;31.35;;
52962;SDS011;38827;53.024;6.596;2023-04-16T04:40:52;58.40;;;30.40;;
52962;SDS011;38827;53.024;6.596;2023-04-16T04:43:18;57.17;;;29.55;;
52962;SDS011;38827;53.024;6.596;2023-04-16T04:45:45;65.30;;;30.48;;
52962;SDS011;38827;53.024;6.596;2023-04-16T04:48:11;61.08;;;29.80;;
52962;SDS011;38827;53.024;6.596;2023-04-16T04:50:37;59.80;;;30.43;;
52962;SDS011;38827;53.024;6.596;2023-04-16T04:53:02;67.25;;;31.55;;
52962;SDS011;38827;53.024;6.596;2023-04-16T04:55:37;61.10;;;31.27;;
52962;SDS011;38827;53.024;6.596;2023-04-16T04:58:03;60.72;;;30.63;;
52962;SDS011;38827;53.024;6.596;2023-04-16T05:00:30;68.03;;;31.13;;
52962;SDS011;38827;53.024;6.596;2023-04-16T05:02:57;71.20;;;32.47;;
52962;SDS011;38827;53.024;6.596;2023-04-16T05:05:26;63.97;;;31.02;;
52962;SDS011;38827;53.024;6.596;2023-04-16T05:07:51;66.18;;;30.98;;
52962;SDS011;38827;53.024;6.596;2023-04-16T05:10:17;76.40;;;32.08;;
52962;SDS011;38827;53.024;6.596;2023-04-16T05:12:43;64.95;;;32.15;;
52962;SDS011;38827;53.024;6.596;2023-04-16T05:15:10;61.90;;;31.00;;
52962;SDS011;38827;53.024;6.596;2023-04-16T05:17:38;59.83;;;29.30;;
52962;SDS011;38827;53.024;6.596;2023-04-16T05:20:04;62.25;;;29.85;;
52962;SDS011;38827;53.024;6.596;2023-04-16T05:22:33;60.83;;;29.77;;
52962;SDS011;38827;53.024;6.596;2023-04-16T05:24:58;68.18;;;30.20;;
52962;SDS011;38827;53.024;6.596;2023-04-16T05:27:24;61.65;;;29.70;;
52962;SDS011;38827;53.024;6.596;2023-04-16T05:29:50;64.35;;;30.00;;
52962;SDS011;38827;53.024;6.596;2023-04-16T05:32:15;69.97;;;30.25;;
52962;SDS011;38827;53.024;6.596;2023-04-16T05:34:41;60.22;;;29.58;;
52962;SDS011;38827;53.024;6.596;2023-04-16T05:37:07;66.90;;;30.55;;
52962;SDS011;38827;53.024;6.596;2023-04-16T05:39:32;67.25;;;30.77;;
52962;SDS011;38827;53.024;6.596;2023-04-16T05:41:58;67.10;;;30.88;;
52962;SDS011;38827;53.024;6.596;2023-04-16T05:44:24;72.82;;;31.15;;
52962;SDS011;38827;53.024;6.596;2023-04-16T05:46:50;62.72;;;30.23;;
52962;SDS011;38827;53.024;6.596;2023-04-16T05:49:16;66.20;;;32.72;;
52962;SDS011;38827;53.024;6.596;2023-04-16T05:51:46;71.25;;;31.23;;
52962;SDS011;38827;53.024;6.596;2023-04-16T05:54:15;69.85;;;31.95;;
52962;SDS011;38827;53.024;6.596;2023-04-16T05:56:41;63.80;;;30.35;;
52962;SDS011;38827;53.024;6.596;2023-04-16T05:59:06;62.90;;;30.23;;
52962;SDS011;38827;53.024;6.596;2023-04-16T06:01:32;65.57;;;31.00;;
52962;SDS011;38827;53.024;6.596;2023-04-16T06:04:00;66.82;;;30.98;;
52962;SDS011;38827;53.024;6.596;2023-04-16T06:06:26;56.88;;;29.45;;
52962;SDS011;38827;53.024;6.596;2023-04-16T06:08:52;61.67;;;30.08;;
52962;SDS011;38827;53.024;6.596;2023-04-16T06:11:18;50.55;;;27.60;;
52962;SDS011;38827;53.024;6.596;2023-04-16T06:13:44;56.28;;;29.50;;
52962;SDS011;38827;53.024;6.596;2023-04-16T06:16:09;50.75;;;27.92;;
52962;SDS011;38827;53.024;6.596;2023-04-16T06:18:35;53.42;;;26.73;;
52962;SDS011;38827;53.024;6.596;2023-04-16T06:21:04;50.30;;;26.80;;
52962;SDS011;38827;53.024;6.596;2023-04-16T06:23:30;61.13;;;28.50;;
52962;SDS011;38827;53.024;6.596;2023-04-16T06:26:01;51.38;;;26.45;;
52962;SDS011;38827;53.024;6.596;2023-04-16T06:28:27;44.55;;;25.35;;
52962;SDS011;38827;53.024;6.596;2023-04-16T06:30:52;48.20;;;26.30;;
52962;SDS011;38827;53.024;6.596;2023-04-16T06:33:18;53.95;;;26.00;;
52962;SDS011;38827;53.024;6.596;2023-04-16T06:35:47;53.83;;;27.85;;
52962;SDS011;38827;53.024;6.596;2023-04-16T06:38:13;45.70;;;26.48;;
52962;SDS011;38827;53.024;6.596;2023-04-16T06:40:39;45.72;;;25.33;;
52962;SDS011;38827;53.024;6.596;2023-04-16T06:43:05;48.47;;;26.38;;
52962;SDS011;38827;53.024;6.596;2023-04-16T06:45:30;49.28;;;26.30;;
52962;SDS011;38827;53.024;6.596;2023-04-16T06:47:56;48.10;;;25.05;;
52962;SDS011;38827;53.024;6.596;2023-04-16T06:50:27;51.58;;;26.38;;
52962;SDS011;38827;53.024;6.596;2023-04-16T06:52:56;55.90;;;27.08;;
52962;SDS011;38827;53.024;6.596;2023-04-16T06:55:21;53.83;;;26.70;;
52962;SDS011;38827;53.024;6.596;2023-04-16T06:57:47;53.22;;;26.45;;
52962;SDS011;38827;53.024;6.596;2023-04-16T07:00:13;50.50;;;26.30;;
52962;SDS011;38827;53.024;6.596;2023-04-16T07:02:41;50.45;;;25.42;;
52962;SDS011;38827;53.024;6.596;2023-04-16T07:05:07;52.65;;;26.20;;
52962;SDS011;38827;53.024;6.596;2023-04-16T07:07:33;57.83;;;26.33;;
52962;SDS011;38827;53.024;6.596;2023-04-16T07:10:01;52.17;;;24.63;;
52962;SDS011;38827;53.024;6.596;2023-04-16T07:12:32;57.28;;;27.05;;
52962;SDS011;38827;53.024;6.596;2023-04-16T07:15:00;55.85;;;24.70;;
52962;SDS011;38827;53.024;6.596;2023-04-16T07:17:26;47.80;;;24.88;;
52962;SDS011;38827;53.024;6.596;2023-04-16T07:19:52;51.22;;;24.75;;
52962;SDS011;38827;53.024;6.596;2023-04-16T07:22:18;45.35;;;22.85;;
52962;SDS011;38827;53.024;6.596;2023-04-16T07:24:44;52.20;;;23.98;;
52962;SDS011;38827;53.024;6.596;2023-04-16T07:27:10;47.58;;;24.27;;
52962;SDS011;38827;53.024;6.596;2023-04-16T07:29:38;49.10;;;23.70;;
52962;SDS011;38827;53.024;6.596;2023-04-16T07:32:06;48.88;;;23.30;;
52962;SDS011;38827;53.024;6.596;2023-04-16T07:34:32;57.00;;;23.30;;
52962;SDS011;38827;53.024;6.596;2023-04-16T07:36:57;48.60;;;22.13;;
52962;SDS011;38827;53.024;6.596;2023-04-16T07:39:23;50.17;;;21.33;;
52962;SDS011;38827;53.024;6.596;2023-04-16T07:41:48;46.35;;;20.83;;
52962;SDS011;38827;53.024;6.596;2023-04-16T07:44:14;49.90;;;21.63;;
52962;SDS011;38827;53.024;6.596;2023-04-16T07:46:40;45.73;;;21.03;;
52962;SDS011;38827;53.024;6.596;2023-04-16T07:49:06;41.65;;;20.67;;
52962;SDS011;38827;53.024;6.596;2023-04-16T07:51:32;44.45;;;20.05;;
52962;SDS011;38827;53.024;6.596;2023-04-16T07:53:57;49.83;;;20.65;;
52962;SDS011;38827;53.024;6.596;2023-04-16T07:56:24;52.72;;;22.63;;
52962;SDS011;38827;53.024;6.596;2023-04-16T07:58:51;53.88;;;21.35;;
52962;SDS011;38827;53.024;6.596;2023-04-16T08:01:17;46.70;;;20.33;;
52962;SDS011;38827;53.024;6.596;2023-04-16T08:03:43;48.00;;;22.35;;
52962;SDS011;38827;53.024;6.596;2023-04-16T08:06:08;45.92;;;22.48;;
52962;SDS011;38827;53.024;6.596;2023-04-16T08:08:35;45.33;;;20.55;;
52962;SDS011;38827;53.024;6.596;2023-04-16T08:11:01;49.72;;;21.38;;
52962;SDS011;38827;53.024;6.596;2023-04-16T08:13:26;49.72;;;21.42;;
52962;SDS011;38827;53.024;6.596;2023-04-16T08:15:52;48.50;;;20.75;;
52962;SDS011;38827;53.024;6.596;2023-04-16T08:18:18;46.00;;;21.42;;
52962;SDS011;38827;53.024;6.596;2023-04-16T08:20:44;48.38;;;21.67;;
52962;SDS011;38827;53.024;6.596;2023-04-16T08:23:09;44.63;;;22.15;;
52962;SDS011;38827;53.024;6.596;2023-04-16T08:25:35;51.92;;;20.73;;
52962;SDS011;38827;53.024;6.596;2023-04-16T08:28:01;44.35;;;20.70;;
52962;SDS011;38827;53.024;6.596;2023-04-16T08:30:26;46.50;;;20.63;;
52962;SDS011;38827;53.024;6.596;2023-04-16T08:32:52;40.03;;;19.27;;
52962;SDS011;38827;53.024;6.596;2023-04-16T08:35:18;43.17;;;20.08;;
52962;SDS011;38827;53.024;6.596;2023-04-16T08:37:44;39.90;;;19.77;;
52962;SDS011;38827;53.024;6.596;2023-04-16T08:40:10;38.08;;;19.60;;
52962;SDS011;38827;53.024;6.596;2023-04-16T08:42:47;40.83;;;20.15;;
52962;SDS011;38827;53.024;6.596;2023-04-16T08:45:17;44.40;;;20.25;;
52962;SDS011;38827;53.024;6.596;2023-04-16T08:47:49;42.58;;;20.42;;
52962;SDS011;38827;53.024;6.596;2023-04-16T08:50:17;42.83;;;19.10;;
52962;SDS011;38827;53.024;6.596;2023-04-16T08:53:02;37.30;;;18.25;;
52962;SDS011;38827;53.024;6.596;2023-04-16T08:55:41;40.17;;;18.10;;
52962;SDS011;38827;53.024;6.596;2023-04-16T08:58:14;34.58;;;17.77;;
52962;SDS011;38827;53.024;6.596;2023-04-16T09:00:43;41.38;;;17.42;;
52962;SDS011;38827;53.024;6.596;2023-04-16T09:05:36;32.42;;;16.25;;
52962;SDS011;38827;53.024;6.596;2023-04-16T09:08:03;29.63;;;16.55;;
52962;SDS011;38827;53.024;6.596;2023-04-16T09:10:30;34.85;;;16.17;;
52962;SDS011;38827;53.024;6.596;2023-04-16T09:12:57;27.65;;;14.90;;
52962;SDS011;38827;53.024;6.596;2023-04-16T09:15:23;30.95;;;15.75;;
52962;SDS011;38827;53.024;6.596;2023-04-16T09:17:52;30.13;;;15.00;;
52962;SDS011;38827;53.024;6.596;2023-04-16T09:20:26;24.83;;;14.07;;
52962;SDS011;38827;53.024;6.596;2023-04-16T09:22:52;33.80;;;13.82;;
52962;SDS011;38827;53.024;6.596;2023-04-16T09:25:21;23.95;;;13.80;;
52962;SDS011;38827;53.024;6.596;2023-04-16T09:27:49;25.23;;;14.10;;
52962;SDS011;38827;53.024;6.596;2023-04-16T09:30:24;27.92;;;14.98;;
52962;SDS011;38827;53.024;6.596;2023-04-16T09:32:51;28.88;;;13.75;;
52962;SDS011;38827;53.024;6.596;2023-04-16T09:35:47;22.92;;;13.38;;
52962;SDS011;38827;53.024;6.596;2023-04-16T09:38:14;24.42;;;13.18;;
52962;SDS011;38827;53.024;6.596;2023-04-16T09:40:40;23.23;;;13.00;;
52962;SDS011;38827;53.024;6.596;2023-04-16T09:43:13;25.85;;;13.35;;
52962;SDS011;38827;53.024;6.596;2023-04-16T09:45:51;24.83;;;13.85;;
52962;SDS011;38827;53.024;6.596;2023-04-16T09:48:28;23.38;;;12.88;;
52962;SDS011;38827;53.024;6.596;2023-04-16T09:50:57;20.58;;;12.82;;
52962;SDS011;38827;53.024;6.596;2023-04-16T09:53:24;24.17;;;12.23;;
52962;SDS011;38827;53.024;6.596;2023-04-16T09:55:55;22.10;;;12.43;;
52962;SDS011;38827;53.024;6.596;2023-04-16T09:58:22;19.70;;;12.25;;
52962;SDS011;38827;53.024;6.596;2023-04-16T10:00:55;21.15;;;12.35;;
52962;SDS011;38827;53.024;6.596;2023-04-16T10:03:31;21.58;;;13.68;;
52962;SDS011;38827;53.024;6.596;2023-04-16T10:08:46;21.73;;;12.98;;
52962;SDS011;38827;53.024;6.596;2023-04-16T10:13:42;18.77;;;11.50;;
52962;SDS011;38827;53.024;6.596;2023-04-16T10:16:08;17.65;;;11.55;;
52962;SDS011;38827;53.024;6.596;2023-04-16T10:18:38;18.92;;;12.05;;
52962;SDS011;38827;53.024;6.596;2023-04-16T10:21:06;18.52;;;12.55;;
52962;SDS011;38827;53.024;6.596;2023-04-16T10:23:32;18.77;;;11.90;;
52962;SDS011;38827;53.024;6.596;2023-04-16T10:25:59;21.10;;;11.95;;
52962;SDS011;38827;53.024;6.596;2023-04-16T10:28:26;21.60;;;12.73;;
52962;SDS011;38827;53.024;6.596;2023-04-16T10:30:58;19.38;;;11.95;;
52962;SDS011;38827;53.024;6.596;2023-04-16T10:33:33;20.13;;;11.88;;
52962;SDS011;38827;53.024;6.596;2023-04-16T10:36:07;18.20;;;11.90;;
52962;SDS011;38827;53.024;6.596;2023-04-16T10:38:43;21.23;;;11.80;;
52962;SDS011;38827;53.024;6.596;2023-04-16T10:41:11;18.40;;;11.57;;
52962;SDS011;38827;53.024;6.596;2023-04-16T10:43:41;16.08;;;11.27;;
52962;SDS011;38827;53.024;6.596;2023-04-16T10:48:46;19.55;;;11.35;;
52962;SDS011;38827;53.024;6.596;2023-04-16T10:51:23;18.83;;;11.77;;
52962;SDS011;38827;53.024;6.596;2023-04-16T10:53:49;16.65;;;10.90;;
52962;SDS011;38827;53.024;6.596;2023-04-16T10:56:16;17.33;;;11.23;;
52962;SDS011;38827;53.024;6.596;2023-04-16T10:58:57;16.45;;;11.27;;
52962;SDS011;38827;53.024;6.596;2023-04-16T11:01:32;19.07;;;11.03;;
52962;SDS011;38827;53.024;6.596;2023-04-16T11:04:00;16.40;;;11.23;;
52962;SDS011;38827;53.024;6.596;2023-04-16T11:12:19;19.00;;;11.13;;
52962;SDS011;38827;53.024;6.596;2023-04-16T11:17:39;15.30;;;10.10;;
52962;SDS011;38827;53.024;6.596;2023-04-16T11:20:15;16.92;;;10.88;;
52962;SDS011;38827;53.024;6.596;2023-04-16T11:22:41;17.55;;;10.57;;
52962;SDS011;38827;53.024;6.596;2023-04-16T11:25:09;14.02;;;10.18;;
52962;SDS011;38827;53.024;6.596;2023-04-16T11:27:35;18.00;;;10.98;;
52962;SDS011;38827;53.024;6.596;2023-04-16T11:30:01;16.70;;;10.93;;
52962;SDS011;38827;53.024;6.596;2023-04-16T11:32:33;20.42;;;11.13;;
52962;SDS011;38827;53.024;6.596;2023-04-16T11:35:01;19.10;;;11.20;;
52962;SDS011;38827;53.024;6.596;2023-04-16T11:37:33;22.27;;;12.18;;
52962;SDS011;38827;53.024;6.596;2023-04-16T11:40:00;19.95;;;11.77;;
52962;SDS011;38827;53.024;6.596;2023-04-16T11:42:30;21.85;;;12.05;;
52962;SDS011;38827;53.024;6.596;2023-04-16T11:44:56;21.23;;;11.80;;
52962;SDS011;38827;53.024;6.596;2023-04-16T11:47:24;25.25;;;12.80;;
52962;SDS011;38827;53.024;6.596;2023-04-16T11:49:51;24.20;;;12.13;;
52962;SDS011;38827;53.024;6.596;2023-04-16T11:52:32;20.80;;;11.87;;
52962;SDS011;38827;53.024;6.596;2023-04-16T11:55:04;21.55;;;11.32;;
52962;SDS011;38827;53.024;6.596;2023-04-16T11:57:30;23.75;;;12.10;;
52962;SDS011;38827;53.024;6.596;2023-04-16T11:59:56;22.20;;;12.20;;
52962;SDS011;38827;53.024;6.596;2023-04-16T12:04:58;22.48;;;11.48;;
52962;SDS011;38827;53.024;6.596;2023-04-16T12:07:24;23.63;;;11.83;;
52962;SDS011;38827;53.024;6.596;2023-04-16T12:10:02;24.17;;;12.00;;
52962;SDS011;38827;53.024;6.596;2023-04-16T12:12:30;22.63;;;12.82;;
52962;SDS011;38827;53.024;6.596;2023-04-16T12:14:56;22.67;;;12.30;;
52962;SDS011;38827;53.024;6.596;2023-04-16T12:17:27;22.35;;;12.20;;
52962;SDS011;38827;53.024;6.596;2023-04-16T12:19:58;22.88;;;12.25;;
52962;SDS011;38827;53.024;6.596;2023-04-16T12:22:26;19.88;;;12.02;;
52962;SDS011;38827;53.024;6.596;2023-04-16T12:24:57;24.05;;;12.73;;
52962;SDS011;38827;53.024;6.596;2023-04-16T12:27:25;24.77;;;12.85;;
52962;SDS011;38827;53.024;6.596;2023-04-16T12:30:05;20.17;;;11.88;;
52962;SDS011;38827;53.024;6.596;2023-04-16T12:32:32;22.52;;;12.35;;
52962;SDS011;38827;53.024;6.596;2023-04-16T12:34:57;23.30;;;12.07;;
52962;SDS011;38827;53.024;6.596;2023-04-16T12:37:23;19.30;;;12.40;;
52962;SDS011;38827;53.024;6.596;2023-04-16T12:39:49;23.17;;;12.40;;
52962;SDS011;38827;53.024;6.596;2023-04-16T12:42:14;18.77;;;11.83;;
52962;SDS011;38827;53.024;6.596;2023-04-16T12:44:40;24.20;;;12.33;;
52962;SDS011;38827;53.024;6.596;2023-04-16T12:47:06;22.03;;;12.73;;
52962;SDS011;38827;53.024;6.596;2023-04-16T12:49:31;20.17;;;13.33;;
52962;SDS011;38827;53.024;6.596;2023-04-16T12:51:57;18.57;;;12.07;;
52962;SDS011;38827;53.024;6.596;2023-04-16T12:54:23;20.40;;;12.90;;
52962;SDS011;38827;53.024;6.596;2023-04-16T12:56:52;20.60;;;12.77;;
52962;SDS011;38827;53.024;6.596;2023-04-16T12:59:20;24.77;;;13.20;;
52962;SDS011;38827;53.024;6.596;2023-04-16T13:01:45;21.57;;;13.33;;
52962;SDS011;38827;53.024;6.596;2023-04-16T13:04:11;22.10;;;12.90;;
52962;SDS011;38827;53.024;6.596;2023-04-16T13:06:37;20.10;;;12.70;;
52962;SDS011;38827;53.024;6.596;2023-04-16T13:09:02;19.47;;;11.77;;
52962;SDS011;38827;53.024;6.596;2023-04-16T13:11:28;21.07;;;12.77;;
52962;SDS011;38827;53.024;6.596;2023-04-16T13:13:54;22.00;;;12.57;;
52962;SDS011;38827;53.024;6.596;2023-04-16T13:16:20;20.93;;;11.70;;
52962;SDS011;38827;53.024;6.596;2023-04-16T13:18:45;23.20;;;12.87;;
52962;SDS011;38827;53.024;6.596;2023-04-16T13:21:11;24.50;;;12.80;;
52962;SDS011;38827;53.024;6.596;2023-04-16T13:23:37;21.93;;;12.70;;
52962;SDS011;38827;53.024;6.596;2023-04-16T13:26:02;22.63;;;13.63;;
52962;SDS011;38827;53.024;6.596;2023-04-16T13:28:28;20.73;;;12.68;;
52962;SDS011;38827;53.024;6.596;2023-04-16T13:30:54;21.63;;;12.67;;
52962;SDS011;38827;53.024;6.596;2023-04-16T13:33:22;21.83;;;13.25;;
52962;SDS011;38827;53.024;6.596;2023-04-16T13:35:48;21.17;;;13.43;;
52962;SDS011;38827;53.024;6.596;2023-04-16T13:38:14;22.98;;;13.38;;
52962;SDS011;38827;53.024;6.596;2023-04-16T13:40:41;26.42;;;13.15;;
52962;SDS011;38827;53.024;6.596;2023-04-16T13:43:06;24.02;;;13.98;;
52962;SDS011;38827;53.024;6.596;2023-04-16T13:45:32;22.45;;;13.50;;
52962;SDS011;38827;53.024;6.596;2023-04-16T13:47:58;23.88;;;13.25;;
52962;SDS011;38827;53.024;6.596;2023-04-16T13:50:24;22.73;;;13.57;;
52962;SDS011;38827;53.024;6.596;2023-04-16T13:52:49;22.65;;;13.02;;
52962;SDS011;38827;53.024;6.596;2023-04-16T13:55:15;24.58;;;14.02;;
52962;SDS011;38827;53.024;6.596;2023-04-16T13:57:45;23.65;;;14.15;;
52962;SDS011;38827;53.024;6.596;2023-04-16T14:00:12;23.30;;;14.05;;
52962;SDS011;38827;53.024;6.596;2023-04-16T14:02:41;27.80;;;13.85;;
52962;SDS011;38827;53.024;6.596;2023-04-16T14:05:07;23.35;;;14.10;;
52962;SDS011;38827;53.024;6.596;2023-04-16T14:07:33;28.15;;;14.55;;
52962;SDS011;38827;53.024;6.596;2023-04-16T14:10:00;34.78;;;15.15;;
52962;SDS011;38827;53.024;6.596;2023-04-16T14:12:26;24.58;;;13.80;;
52962;SDS011;38827;53.024;6.596;2023-04-16T14:14:51;24.40;;;13.40;;
52962;SDS011;38827;53.024;6.596;2023-04-16T14:17:17;26.70;;;14.27;;
52962;SDS011;38827;53.024;6.596;2023-04-16T14:19:43;22.77;;;13.35;;
52962;SDS011;38827;53.024;6.596;2023-04-16T14:22:11;25.67;;;13.65;;
52962;SDS011;38827;53.024;6.596;2023-04-16T14:24:37;25.67;;;13.80;;
52962;SDS011;38827;53.024;6.596;2023-04-16T14:27:02;26.23;;;13.98;;
52962;SDS011;38827;53.024;6.596;2023-04-16T14:29:29;24.52;;;13.80;;
52962;SDS011;38827;53.024;6.596;2023-04-16T14:31:54;22.90;;;13.85;;
52962;SDS011;38827;53.024;6.596;2023-04-16T14:34:21;23.25;;;14.30;;
52962;SDS011;38827;53.024;6.596;2023-04-16T14:36:46;26.35;;;13.30;;
52962;SDS011;38827;53.024;6.596;2023-04-16T14:41:39;20.25;;;11.57;;
52962;SDS011;38827;53.024;6.596;2023-04-16T14:44:05;21.63;;;13.00;;
52962;SDS011;38827;53.024;6.596;2023-04-16T14:46:31;22.75;;;12.98;;
52962;SDS011;38827;53.024;6.596;2023-04-16T14:48:57;29.60;;;14.00;;